sensor_id;sensor_type;location;lat;lon;timestamp;pressure;altitude;pressure_sealevel;temperature;humidity
49835;BME280;35729;52.090;13.162;2024-01-25T00:01:14;101202.88;;;7.30;77.20
49835;BME280;35729;52.090;13.162;2024-01-25T00:03:43;101215.06;;;7.32;78.48
49835;BME280;35729;52.090;13.162;2024-01-25T00:06:12;101181.13;;;7.32;77.60
49835;BME280;35729;52.090;13.162;2024-01-25T00:08:43;101173.28;;;7.31;77.17
49835;BME280;35729;52.090;13.162;2024-01-25T00:11:11;101162.00;;;7.30;77.65
49835;BME280;35729;52.090;13.162;2024-01-25T00:13:39;101168.94;;;7.28;78.11
49835;BME280;35729;52.090;13.162;2024-01-25T00:16:08;101181.13;;;7.25;77.43
49835;BME280;35729;52.090;13.162;2024-01-25T00:18:36;101200.25;;;7.25;77.74
49835;BME280;35729;52.090;13.162;2024-01-25T00:21:05;101195.94;;;7.26;77.77
49835;BME280;35729;52.090;13.162;2024-01-25T00:23:33;101184.59;;;7.25;77.66
49835;BME280;35729;52.090;13.162;2024-01-25T00:26:04;101195.03;;;7.25;77.28
49835;BME280;35729;52.090;13.162;2024-01-25T00:28:33;101190.69;;;7.27;77.79
49835;BME280;35729;52.090;13.162;2024-01-25T00:31:01;101181.13;;;7.29;78.83
49835;BME280;35729;52.090;13.162;2024-01-25T00:33:30;101181.97;;;7.31;77.96
49835;BME280;35729;52.090;13.162;2024-01-25T00:35:59;101201.16;;;7.32;77.63
49835;BME280;35729;52.090;13.162;2024-01-25T00:38:28;101173.28;;;7.34;79.10
49835;BME280;35729;52.090;13.162;2024-01-25T00:40:57;101193.31;;;7.33;79.21
49835;BME280;35729;52.090;13.162;2024-01-25T00:43:29;101195.06;;;7.34;77.80
49835;BME280;35729;52.090;13.162;2024-01-25T00:45:58;101208.09;;;7.34;77.72
49835;BME280;35729;52.090;13.162;2024-01-25T00:48:27;101185.47;;;7.35;77.65
49835;BME280;35729;52.090;13.162;2024-01-25T00:50:56;101233.34;;;7.36;77.45
49835;BME280;35729;52.090;13.162;2024-01-25T00:53:26;101191.56;;;7.36;78.07
49835;BME280;35729;52.090;13.162;2024-01-25T00:55:55;101211.59;;;7.38;78.65
49835;BME280;35729;52.090;13.162;2024-01-25T00:58:24;101200.25;;;7.38;78.43
49835;BME280;35729;52.090;13.162;2024-01-25T01:00:56;101224.63;;;7.37;78.15
49835;BME280;35729;52.090;13.162;2024-01-25T01:03:25;101224.63;;;7.37;77.66
49835;BME280;35729;52.090;13.162;2024-01-25T01:05:54;101220.28;;;7.36;77.79
49835;BME280;35729;52.090;13.162;2024-01-25T01:08:24;101212.44;;;7.37;78.12
49835;BME280;35729;52.090;13.162;2024-01-25T01:10:52;101204.63;;;7.37;78.55
49835;BME280;35729;52.090;13.162;2024-01-25T01:13:21;101235.06;;;7.38;78.34
49835;BME280;35729;52.090;13.162;2024-01-25T01:15:49;101222.88;;;7.40;80.07
49835;BME280;35729;52.090;13.162;2024-01-25T01:18:20;101243.78;;;7.39;78.00
49835;BME280;35729;52.090;13.162;2024-01-25T01:20:48;101236.78;;;7.39;77.82
49835;BME280;35729;52.090;13.162;2024-01-25T01:23:17;101235.06;;;7.37;78.24
49835;BME280;35729;52.090;13.162;2024-01-25T01:25:45;101231.56;;;7.38;78.13
49835;BME280;35729;52.090;13.162;2024-01-25T01:28:14;101256.84;;;7.36;77.22
49835;BME280;35729;52.090;13.162;2024-01-25T01:30:49;101219.38;;;7.37;77.33
49835;BME280;35729;52.090;13.162;2024-01-25T01:33:20;101245.50;;;7.37;77.46
49835;BME280;35729;52.090;13.162;2024-01-25T01:35:49;101238.56;;;7.36;76.90
49835;BME280;35729;52.090;13.162;2024-01-25T01:38:17;101232.44;;;7.37;77.52
49835;BME280;35729;52.090;13.162;2024-01-25T01:40:45;101251.59;;;7.39;78.30
49835;BME280;35729;52.090;13.162;2024-01-25T01:43:18;101255.97;;;7.38;77.25
49835;BME280;35729;52.090;13.162;2024-01-25T01:45:48;101260.28;;;7.38;77.06
49835;BME280;35729;52.090;13.162;2024-01-25T01:48:19;101238.56;;;7.37;77.53
49835;BME280;35729;52.090;13.162;2024-01-25T01:50:54;101265.53;;;7.36;76.28
49835;BME280;35729;52.090;13.162;2024-01-25T01:53:29;101256.84;;;7.36;76.25
49835;BME280;35729;52.090;13.162;2024-01-25T01:55:59;101279.47;;;7.38;76.40
49835;BME280;35729;52.090;13.162;2024-01-25T01:58:28;101282.94;;;7.39;75.95
49835;BME280;35729;52.090;13.162;2024-01-25T02:00:59;101289.88;;;7.37;75.75
49835;BME280;35729;52.090;13.162;2024-01-25T02:03:30;101262.03;;;7.37;76.16
49835;BME280;35729;52.090;13.162;2024-01-25T02:06:00;101272.50;;;7.37;77.18
49835;BME280;35729;52.090;13.162;2024-01-25T02:08:28;101269.88;;;7.36;76.17
49835;BME280;35729;52.090;13.162;2024-01-25T02:10:57;101269.00;;;7.37;75.94
49835;BME280;35729;52.090;13.162;2024-01-25T02:13:26;101295.09;;;7.35;75.48
49835;BME280;35729;52.090;13.162;2024-01-25T02:15:54;101275.97;;;7.36;75.85
49835;BME280;35729;52.090;13.162;2024-01-25T02:18:23;101275.97;;;7.36;75.71
49835;BME280;35729;52.090;13.162;2024-01-25T02:20:54;101230.72;;;7.36;75.56
49835;BME280;35729;52.090;13.162;2024-01-25T02:23:25;101271.59;;;7.37;76.17
49835;BME280;35729;52.090;13.162;2024-01-25T02:25:53;101274.22;;;7.33;75.50
49835;BME280;35729;52.090;13.162;2024-01-25T02:28:22;101272.47;;;7.34;76.13
49835;BME280;35729;52.090;13.162;2024-01-25T02:30:50;101272.47;;;7.32;75.81
49835;BME280;35729;52.090;13.162;2024-01-25T02:33:19;101277.72;;;7.31;75.88
49835;BME280;35729;52.090;13.162;2024-01-25T02:35:48;101253.34;;;7.32;76.18
49835;BME280;35729;52.090;13.162;2024-01-25T02:38:16;101262.94;;;7.33;77.39
49835;BME280;35729;52.090;13.162;2024-01-25T02:40:47;101251.63;;;7.29;76.31
49835;BME280;35729;52.090;13.162;2024-01-25T02:43:16;101275.97;;;7.30;76.78
49835;BME280;35729;52.090;13.162;2024-01-25T02:45:44;101242.91;;;7.29;76.79
49835;BME280;35729;52.090;13.162;2024-01-25T02:48:13;101256.81;;;7.26;76.53
49835;BME280;35729;52.090;13.162;2024-01-25T02:50:42;101282.91;;;7.26;77.52
49835;BME280;35729;52.090;13.162;2024-01-25T02:53:10;101269.00;;;7.26;77.52
49835;BME280;35729;52.090;13.162;2024-01-25T02:55:39;101269.88;;;7.25;77.06
49835;BME280;35729;52.090;13.162;2024-01-25T02:58:10;101293.38;;;7.23;77.47
49835;BME280;35729;52.090;13.162;2024-01-25T03:00:38;101280.31;;;7.23;77.54
49835;BME280;35729;52.090;13.162;2024-01-25T03:03:07;101273.34;;;7.22;77.50
49835;BME280;35729;52.090;13.162;2024-01-25T03:05:35;101257.69;;;7.22;78.02
49835;BME280;35729;52.090;13.162;2024-01-25T03:08:04;101264.66;;;7.22;78.07
49835;BME280;35729;52.090;13.162;2024-01-25T03:10:33;101275.94;;;7.17;77.24
49835;BME280;35729;52.090;13.162;2024-01-25T03:13:01;101275.09;;;7.15;77.88
49835;BME280;35729;52.090;13.162;2024-01-25T03:15:32;101297.72;;;7.20;77.54
49835;BME280;35729;52.090;13.162;2024-01-25T03:18:00;101275.94;;;7.17;77.42
49835;BME280;35729;52.090;13.162;2024-01-25T03:20:29;101295.06;;;7.16;77.70
49835;BME280;35729;52.090;13.162;2024-01-25T03:22:57;101292.47;;;7.15;77.62
49835;BME280;35729;52.090;13.162;2024-01-25T03:25:26;101302.94;;;7.18;79.38
49835;BME280;35729;52.090;13.162;2024-01-25T03:27:55;101307.25;;;7.16;77.73
49835;BME280;35729;52.090;13.162;2024-01-25T03:30:23;101295.09;;;7.15;78.56
49835;BME280;35729;52.090;13.162;2024-01-25T03:32:54;101291.63;;;7.13;77.63
49835;BME280;35729;52.090;13.162;2024-01-25T03:35:23;101296.81;;;7.11;77.83
49835;BME280;35729;52.090;13.162;2024-01-25T03:37:51;101307.25;;;7.11;76.91
49835;BME280;35729;52.090;13.162;2024-01-25T03:40:20;101326.41;;;7.12;77.23
49835;BME280;35729;52.090;13.162;2024-01-25T03:42:48;101309.88;;;7.13;78.28
49835;BME280;35729;52.090;13.162;2024-01-25T03:45:17;101299.44;;;7.10;76.82
49835;BME280;35729;52.090;13.162;2024-01-25T03:47:45;101301.16;;;7.11;76.99
49835;BME280;35729;52.090;13.162;2024-01-25T03:50:16;101318.56;;;7.09;76.31
49835;BME280;35729;52.090;13.162;2024-01-25T03:52:45;101342.03;;;7.09;76.09
49835;BME280;35729;52.090;13.162;2024-01-25T03:55:13;101305.53;;;7.10;76.81
49835;BME280;35729;52.090;13.162;2024-01-25T03:57:43;101346.41;;;7.08;75.39
49835;BME280;35729;52.090;13.162;2024-01-25T04:00:13;101349.91;;;7.10;75.85
49835;BME280;35729;52.090;13.162;2024-01-25T04:02:41;101343.78;;;7.11;75.10
49835;BME280;35729;52.090;13.162;2024-01-25T04:05:10;101323.78;;;7.12;75.45
49835;BME280;35729;52.090;13.162;2024-01-25T04:07:41;101349.88;;;7.12;75.39
49835;BME280;35729;52.090;13.162;2024-01-25T04:10:09;101341.19;;;7.10;75.39
49835;BME280;35729;52.090;13.162;2024-01-25T04:12:38;101349.03;;;7.13;75.81
49835;BME280;35729;52.090;13.162;2024-01-25T04:15:07;101344.66;;;7.12;75.26
49835;BME280;35729;52.090;13.162;2024-01-25T04:17:35;101342.06;;;7.10;75.66
49835;BME280;35729;52.090;13.162;2024-01-25T04:20:05;101355.97;;;7.11;75.67
49835;BME280;35729;52.090;13.162;2024-01-25T04:22:34;101335.97;;;7.10;76.41
49835;BME280;35729;52.090;13.162;2024-01-25T04:25:12;101316.84;;;7.08;76.05
49835;BME280;35729;52.090;13.162;2024-01-25T04:27:40;101329.88;;;7.08;76.44
49835;BME280;35729;52.090;13.162;2024-01-25T04:30:15;101356.84;;;7.07;76.03
49835;BME280;35729;52.090;13.162;2024-01-25T04:32:44;101364.66;;;7.05;75.91
49835;BME280;35729;52.090;13.162;2024-01-25T04:35:12;101338.56;;;7.07;76.92
49835;BME280;35729;52.090;13.162;2024-01-25T04:37:41;101362.03;;;7.02;76.77
49835;BME280;35729;52.090;13.162;2024-01-25T04:40:12;101338.53;;;7.04;77.17
49835;BME280;35729;52.090;13.162;2024-01-25T04:42:40;101340.28;;;7.00;76.33
49835;BME280;35729;52.090;13.162;2024-01-25T04:45:09;101307.25;;;6.99;76.21
49835;BME280;35729;52.090;13.162;2024-01-25T04:47:38;101341.13;;;6.97;76.27
49835;BME280;35729;52.090;13.162;2024-01-25T04:50:07;101353.31;;;6.94;75.97
49835;BME280;35729;52.090;13.162;2024-01-25T04:52:36;101355.06;;;6.96;76.45
49835;BME280;35729;52.090;13.162;2024-01-25T04:55:05;101348.94;;;6.91;75.69
49835;BME280;35729;52.090;13.162;2024-01-25T04:57:36;101361.16;;;6.94;75.90
49835;BME280;35729;52.090;13.162;2024-01-25T05:00:14;101360.25;;;6.93;75.66
49835;BME280;35729;52.090;13.162;2024-01-25T05:02:43;101382.84;;;6.91;76.75
49835;BME280;35729;52.090;13.162;2024-01-25T05:05:11;101383.75;;;6.93;76.30
49835;BME280;35729;52.090;13.162;2024-01-25T05:07:40;101371.56;;;6.92;76.42
49835;BME280;35729;52.090;13.162;2024-01-25T05:10:09;101360.28;;;6.90;75.15
49835;BME280;35729;52.090;13.162;2024-01-25T05:12:40;101388.06;;;6.90;74.36
49835;BME280;35729;52.090;13.162;2024-01-25T05:15:09;101362.84;;;6.87;73.82
49835;BME280;35729;52.090;13.162;2024-01-25T05:17:38;101401.97;;;6.87;73.31
49835;BME280;35729;52.090;13.162;2024-01-25T05:20:07;101395.91;;;6.87;74.16
49835;BME280;35729;52.090;13.162;2024-01-25T05:22:36;101389.78;;;6.84;74.45
49835;BME280;35729;52.090;13.162;2024-01-25T05:25:08;101405.44;;;6.83;74.05
49835;BME280;35729;52.090;13.162;2024-01-25T05:27:36;101427.16;;;6.80;73.57
49835;BME280;35729;52.090;13.162;2024-01-25T05:30:08;101383.69;;;6.79;73.45
49835;BME280;35729;52.090;13.162;2024-01-25T05:32:37;101379.34;;;6.78;75.96
49835;BME280;35729;52.090;13.162;2024-01-25T05:35:07;101405.41;;;6.77;73.63
49835;BME280;35729;52.090;13.162;2024-01-25T05:37:36;101414.09;;;6.77;74.10
49835;BME280;35729;52.090;13.162;2024-01-25T05:40:05;101398.47;;;6.79;74.86
49835;BME280;35729;52.090;13.162;2024-01-25T05:42:34;101428.03;;;6.76;74.33
49835;BME280;35729;52.090;13.162;2024-01-25T05:45:03;101429.75;;;6.76;74.15
49835;BME280;35729;52.090;13.162;2024-01-25T05:47:35;101437.56;;;6.76;73.97
49835;BME280;35729;52.090;13.162;2024-01-25T05:50:04;101428.00;;;6.73;74.33
49835;BME280;35729;52.090;13.162;2024-01-25T05:52:32;101441.94;;;6.74;75.27
49835;BME280;35729;52.090;13.162;2024-01-25T05:55:03;101438.44;;;6.73;76.06
49835;BME280;35729;52.090;13.162;2024-01-25T05:57:31;101446.25;;;6.72;76.01
49835;BME280;35729;52.090;13.162;2024-01-25T06:00:00;101453.19;;;6.69;74.93
49835;BME280;35729;52.090;13.162;2024-01-25T06:02:28;101458.41;;;6.69;74.79
49835;BME280;35729;52.090;13.162;2024-01-25T06:04:59;101462.75;;;6.71;75.52
49835;BME280;35729;52.090;13.162;2024-01-25T06:07:28;101457.53;;;6.72;76.06
49835;BME280;35729;52.090;13.162;2024-01-25T06:09:56;101448.84;;;6.72;75.46
49835;BME280;35729;52.090;13.162;2024-01-25T06:12:25;101477.53;;;6.72;74.66
49835;BME280;35729;52.090;13.162;2024-01-25T06:14:53;101447.13;;;6.74;75.32
49835;BME280;35729;52.090;13.162;2024-01-25T06:17:22;101455.81;;;6.76;75.11
49835;BME280;35729;52.090;13.162;2024-01-25T06:19:50;101464.53;;;6.76;76.36
49835;BME280;35729;52.090;13.162;2024-01-25T06:22:21;101500.16;;;6.76;74.24
49835;BME280;35729;52.090;13.162;2024-01-25T06:24:50;101484.56;;;6.79;75.36
49835;BME280;35729;52.090;13.162;2024-01-25T06:27:18;101499.34;;;6.80;74.88
49835;BME280;35729;52.090;13.162;2024-01-25T06:29:47;101490.63;;;6.79;75.15
49835;BME280;35729;52.090;13.162;2024-01-25T06:32:15;101514.09;;;6.81;76.33
49835;BME280;35729;52.090;13.162;2024-01-25T06:34:44;101505.41;;;6.82;75.97
49835;BME280;35729;52.090;13.162;2024-01-25T06:37:12;101497.59;;;6.82;76.03
49835;BME280;35729;52.090;13.162;2024-01-25T06:39:44;101501.94;;;6.80;75.30
49835;BME280;35729;52.090;13.162;2024-01-25T06:42:13;101510.63;;;6.82;75.42
49835;BME280;35729;52.090;13.162;2024-01-25T06:44:41;101523.69;;;6.80;75.06
49835;BME280;35729;52.090;13.162;2024-01-25T06:47:09;101514.13;;;6.82;76.11
49835;BME280;35729;52.090;13.162;2024-01-25T06:49:38;101515.84;;;6.82;75.49
49835;BME280;35729;52.090;13.162;2024-01-25T06:52:07;101520.22;;;6.83;76.27
49835;BME280;35729;52.090;13.162;2024-01-25T06:54:35;101515.00;;;6.84;75.55
49835;BME280;35729;52.090;13.162;2024-01-25T06:57:06;101553.25;;;6.84;75.37
49835;BME280;35729;52.090;13.162;2024-01-25T06:59:35;101535.88;;;6.86;76.84
49835;BME280;35729;52.090;13.162;2024-01-25T07:02:00;101549.75;;;6.83;75.66
49835;BME280;35729;52.090;13.162;2024-01-25T07:04:29;101552.41;;;6.88;77.21
49835;BME280;35729;52.090;13.162;2024-01-25T07:06:58;101573.31;;;6.93;75.84
49835;BME280;35729;52.090;13.162;2024-01-25T07:09:27;101560.28;;;6.97;76.67
49835;BME280;35729;52.090;13.162;2024-01-25T07:11:55;101571.56;;;6.93;75.27
49835;BME280;35729;52.090;13.162;2024-01-25T07:14:26;101555.91;;;6.95;77.42
49835;BME280;35729;52.090;13.162;2024-01-25T07:16:54;101562.88;;;6.93;76.32
49835;BME280;35729;52.090;13.162;2024-01-25T07:19:23;101570.69;;;6.91;76.30
49835;BME280;35729;52.090;13.162;2024-01-25T07:21:52;101578.50;;;6.88;75.39
49835;BME280;35729;52.090;13.162;2024-01-25T07:24:20;101528.94;;;6.87;75.33
49835;BME280;35729;52.090;13.162;2024-01-25T07:26:49;101556.72;;;6.86;75.37
49835;BME280;35729;52.090;13.162;2024-01-25T07:29:17;101561.09;;;6.87;75.26
49835;BME280;35729;52.090;13.162;2024-01-25T07:31:48;101573.28;;;6.87;75.25
49835;BME280;35729;52.090;13.162;2024-01-25T07:34:17;101551.50;;;6.86;75.31
49835;BME280;35729;52.090;13.162;2024-01-25T07:36:45;101556.78;;;6.89;75.72
49835;BME280;35729;52.090;13.162;2024-01-25T07:39:14;101567.22;;;6.92;76.66
49835;BME280;35729;52.090;13.162;2024-01-25T07:41:42;101561.13;;;6.92;75.46
49835;BME280;35729;52.090;13.162;2024-01-25T07:44:11;101572.44;;;6.92;75.53
49835;BME280;35729;52.090;13.162;2024-01-25T07:46:39;101564.59;;;6.91;74.83
49835;BME280;35729;52.090;13.162;2024-01-25T07:49:10;101599.38;;;6.91;75.15
49835;BME280;35729;52.090;13.162;2024-01-25T07:51:38;101565.47;;;6.91;76.29
49835;BME280;35729;52.090;13.162;2024-01-25T07:54:08;101568.97;;;6.92;75.27
49835;BME280;35729;52.090;13.162;2024-01-25T07:56:36;101588.09;;;6.91;74.97
49835;BME280;35729;52.090;13.162;2024-01-25T07:59:05;101584.63;;;6.93;76.89
49835;BME280;35729;52.090;13.162;2024-01-25T08:01:33;101592.44;;;6.92;75.34
49835;BME280;35729;52.090;13.162;2024-01-25T08:04:01;101611.56;;;6.89;75.19
49835;BME280;35729;52.090;13.162;2024-01-25T08:06:33;101601.13;;;6.89;75.17
49835;BME280;35729;52.090;13.162;2024-01-25T08:09:01;101620.25;;;6.90;76.10
49835;BME280;35729;52.090;13.162;2024-01-25T08:11:30;101648.06;;;6.88;74.99
49835;BME280;35729;52.090;13.162;2024-01-25T08:13:58;101576.75;;;6.87;75.71
49835;BME280;35729;52.090;13.162;2024-01-25T08:16:29;101579.34;;;6.85;75.06
49835;BME280;35729;52.090;13.162;2024-01-25T08:18:57;101601.09;;;6.86;75.76
49835;BME280;35729;52.090;13.162;2024-01-25T08:21:26;101571.53;;;6.87;76.27
49835;BME280;35729;52.090;13.162;2024-01-25T08:23:57;101615.00;;;6.87;75.88
49835;BME280;35729;52.090;13.162;2024-01-25T08:26:25;101603.69;;;6.86;75.64
49835;BME280;35729;52.090;13.162;2024-01-25T08:28:54;101598.47;;;6.86;74.57
49835;BME280;35729;52.090;13.162;2024-01-25T08:31:23;101622.84;;;6.88;75.94
49835;BME280;35729;52.090;13.162;2024-01-25T08:33:51;101617.63;;;6.88;75.12
49835;BME280;35729;52.090;13.162;2024-01-25T08:36:19;101613.31;;;6.90;76.07
49835;BME280;35729;52.090;13.162;2024-01-25T08:38:48;101615.03;;;6.90;75.49
49835;BME280;35729;52.090;13.162;2024-01-25T08:41:19;101615.03;;;6.90;75.09
49835;BME280;35729;52.090;13.162;2024-01-25T08:43:47;101602.88;;;6.90;75.22
49835;BME280;35729;52.090;13.162;2024-01-25T08:46:16;101626.34;;;6.90;75.60
49835;BME280;35729;52.090;13.162;2024-01-25T08:48:44;101637.66;;;6.92;75.85
49835;BME280;35729;52.090;13.162;2024-01-25T08:51:13;101696.78;;;6.92;75.35
49835;BME280;35729;52.090;13.162;2024-01-25T08:53:41;101639.41;;;6.93;75.51
49835;BME280;35729;52.090;13.162;2024-01-25T08:56:10;101647.25;;;6.95;75.03
49835;BME280;35729;52.090;13.162;2024-01-25T08:58:41;101657.66;;;6.95;75.07
49835;BME280;35729;52.090;13.162;2024-01-25T09:01:09;101663.78;;;6.98;75.54
49835;BME280;35729;52.090;13.162;2024-01-25T09:03:38;101674.22;;;6.97;74.79
49835;BME280;35729;52.090;13.162;2024-01-25T09:06:07;101663.78;;;6.98;74.88
49835;BME280;35729;52.090;13.162;2024-01-25T09:08:35;101662.94;;;7.03;76.44
49835;BME280;35729;52.090;13.162;2024-01-25T09:11:04;101675.13;;;7.04;75.21
49835;BME280;35729;52.090;13.162;2024-01-25T09:13:32;101680.41;;;7.05;75.67
49835;BME280;35729;52.090;13.162;2024-01-25T09:16:04;101720.41;;;7.06;74.73
49835;BME280;35729;52.090;13.162;2024-01-25T09:18:33;101687.38;;;7.08;76.23
49835;BME280;35729;52.090;13.162;2024-01-25T09:21:01;101735.19;;;7.08;74.93
49835;BME280;35729;52.090;13.162;2024-01-25T09:23:30;101700.44;;;7.11;76.86
49835;BME280;35729;52.090;13.162;2024-01-25T09:25:58;101709.13;;;7.11;75.30
49835;BME280;35729;52.090;13.162;2024-01-25T09:28:27;101708.25;;;7.12;75.20
49835;BME280;35729;52.090;13.162;2024-01-25T09:30:55;101740.41;;;7.07;74.82
49835;BME280;35729;52.090;13.162;2024-01-25T09:33:26;101710.88;;;7.09;76.24
49835;BME280;35729;52.090;13.162;2024-01-25T09:35:55;101714.34;;;7.10;75.83
49835;BME280;35729;52.090;13.162;2024-01-25T09:38:23;101683.91;;;7.10;75.86
49835;BME280;35729;52.090;13.162;2024-01-25T09:40:52;101713.47;;;7.11;75.59
49835;BME280;35729;52.090;13.162;2024-01-25T09:43:21;101714.38;;;7.14;75.93
49835;BME280;35729;52.090;13.162;2024-01-25T09:45:53;101711.78;;;7.16;76.55
49835;BME280;35729;52.090;13.162;2024-01-25T09:48:21;101730.03;;;7.16;76.13
49835;BME280;35729;52.090;13.162;2024-01-25T09:50:55;101730.91;;;7.16;75.74
49835;BME280;35729;52.090;13.162;2024-01-25T09:53:24;101739.63;;;7.15;75.46
49835;BME280;35729;52.090;13.162;2024-01-25T09:55:58;101748.31;;;7.16;75.72
49835;BME280;35729;52.090;13.162;2024-01-25T09:58:35;101734.41;;;7.17;76.50
49835;BME280;35729;52.090;13.162;2024-01-25T10:01:08;101749.22;;;7.18;75.68
49835;BME280;35729;52.090;13.162;2024-01-25T10:03:38;101750.97;;;7.19;75.58
49835;BME280;35729;52.090;13.162;2024-01-25T10:06:10;101749.22;;;7.20;75.51
49835;BME280;35729;52.090;13.162;2024-01-25T10:08:39;101752.75;;;7.25;77.08
49835;BME280;35729;52.090;13.162;2024-01-25T10:11:07;101737.94;;;7.24;76.15
49835;BME280;35729;52.090;13.162;2024-01-25T10:13:40;101745.75;;;7.24;75.58
49835;BME280;35729;52.090;13.162;2024-01-25T10:16:10;101771.00;;;7.26;76.79
49835;BME280;35729;52.090;13.162;2024-01-25T10:18:40;101746.66;;;7.24;75.87
49835;BME280;35729;52.090;13.162;2024-01-25T10:21:12;101738.84;;;7.26;76.99
49835;BME280;35729;52.090;13.162;2024-01-25T10:23:48;101756.19;;;7.24;75.92
49835;BME280;35729;52.090;13.162;2024-01-25T10:26:16;101775.38;;;7.24;75.97
49835;BME280;35729;52.090;13.162;2024-01-25T10:28:50;101746.59;;;7.20;75.22
49835;BME280;35729;52.090;13.162;2024-01-25T10:31:25;101774.47;;;7.25;75.95
49835;BME280;35729;52.090;13.162;2024-01-25T10:33:54;101751.03;;;7.28;75.62
49835;BME280;35729;52.090;13.162;2024-01-25T10:36:26;101736.28;;;7.33;75.50
49835;BME280;35729;52.090;13.162;2024-01-25T10:38:56;101769.38;;;7.38;75.34
49835;BME280;35729;52.090;13.162;2024-01-25T10:41:26;101785.06;;;7.41;75.78
49835;BME280;35729;52.090;13.162;2024-01-25T10:43:55;101770.31;;;7.46;75.83
49835;BME280;35729;52.090;13.162;2024-01-25T10:46:24;101767.72;;;7.49;76.46
49835;BME280;35729;52.090;13.162;2024-01-25T10:48:57;101794.72;;;7.51;74.22
49835;BME280;35729;52.090;13.162;2024-01-25T10:51:30;101778.16;;;7.49;74.03
49835;BME280;35729;52.090;13.162;2024-01-25T10:53:59;101762.50;;;7.47;74.51
49835;BME280;35729;52.090;13.162;2024-01-25T10:56:30;101765.97;;;7.48;75.34
49835;BME280;35729;52.090;13.162;2024-01-25T10:58:59;101745.06;;;7.46;74.41
49835;BME280;35729;52.090;13.162;2024-01-25T11:01:34;101846.06;;;7.47;74.11
49835;BME280;35729;52.090;13.162;2024-01-25T11:04:11;101759.03;;;7.47;73.47
49835;BME280;35729;52.090;13.162;2024-01-25T11:06:44;101763.34;;;7.48;73.90
49835;BME280;35729;52.090;13.162;2024-01-25T11:09:17;101778.16;;;7.49;73.54
49835;BME280;35729;52.090;13.162;2024-01-25T11:11:47;101773.84;;;7.49;73.91
49835;BME280;35729;52.090;13.162;2024-01-25T11:14:16;101776.44;;;7.51;73.43
49835;BME280;35729;52.090;13.162;2024-01-25T11:16:45;101763.38;;;7.51;74.70
49835;BME280;35729;52.090;13.162;2024-01-25T11:19:17;101775.59;;;7.52;74.35
49835;BME280;35729;52.090;13.162;2024-01-25T11:21:49;101802.59;;;7.56;73.88
49835;BME280;35729;52.090;13.162;2024-01-25T11:24:20;101788.66;;;7.57;73.34
49835;BME280;35729;52.090;13.162;2024-01-25T11:26:49;101758.22;;;7.57;73.84
49835;BME280;35729;52.090;13.162;2024-01-25T11:29:19;101773.03;;;7.58;74.04
49835;BME280;35729;52.090;13.162;2024-01-25T11:31:50;101761.69;;;7.58;74.39
49835;BME280;35729;52.090;13.162;2024-01-25T11:34:19;101778.25;;;7.58;73.50
49835;BME280;35729;52.090;13.162;2024-01-25T11:36:50;101764.28;;;7.56;73.02
49835;BME280;35729;52.090;13.162;2024-01-25T11:39:19;101764.28;;;7.56;73.37
49835;BME280;35729;52.090;13.162;2024-01-25T11:41:47;101773.00;;;7.55;73.95
49835;BME280;35729;52.090;13.162;2024-01-25T11:44:16;101763.44;;;7.56;74.45
49835;BME280;35729;52.090;13.162;2024-01-25T11:46:44;101758.22;;;7.57;75.23
49835;BME280;35729;52.090;13.162;2024-01-25T11:49:13;101773.88;;;7.57;74.28
49835;BME280;35729;52.090;13.162;2024-01-25T11:51:41;101767.81;;;7.58;74.57
49835;BME280;35729;52.090;13.162;2024-01-25T11:54:12;101769.53;;;7.56;74.05
49835;BME280;35729;52.090;13.162;2024-01-25T11:56:42;101766.06;;;7.57;75.09
49835;BME280;35729;52.090;13.162;2024-01-25T11:59:11;101757.31;;;7.57;73.55
49835;BME280;35729;52.090;13.162;2024-01-25T12:01:40;101762.53;;;7.52;73.73
49835;BME280;35729;52.090;13.162;2024-01-25T12:04:09;101741.59;;;7.50;74.08
49835;BME280;35729;52.090;13.162;2024-01-25T12:06:37;101772.09;;;7.50;75.12
49835;BME280;35729;52.090;13.162;2024-01-25T12:09:07;101788.59;;;7.50;74.38
49835;BME280;35729;52.090;13.162;2024-01-25T12:11:40;101759.94;;;7.55;73.63
49835;BME280;35729;52.090;13.162;2024-01-25T12:14:09;101773.03;;;7.58;73.52
49835;BME280;35729;52.090;13.162;2024-01-25T12:16:38;101773.03;;;7.58;74.00
49835;BME280;35729;52.090;13.162;2024-01-25T12:19:07;101776.50;;;7.60;73.68
49835;BME280;35729;52.090;13.162;2024-01-25T12:21:35;101773.03;;;7.63;74.52
49835;BME280;35729;52.090;13.162;2024-01-25T12:24:06;101771.31;;;7.66;75.50
49835;BME280;35729;52.090;13.162;2024-01-25T12:26:36;101791.38;;;7.68;73.34
49835;BME280;35729;52.090;13.162;2024-01-25T12:29:08;101785.25;;;7.65;72.79
49835;BME280;35729;52.090;13.162;2024-01-25T12:31:36;101778.31;;;7.68;73.82
49835;BME280;35729;52.090;13.162;2024-01-25T12:34:13;101782.63;;;7.67;72.98
49835;BME280;35729;52.090;13.162;2024-01-25T12:36:41;101772.22;;;7.70;74.32
49835;BME280;35729;52.090;13.162;2024-01-25T12:39:10;101769.59;;;7.69;72.28
49835;BME280;35729;52.090;13.162;2024-01-25T12:41:40;101799.19;;;7.68;72.25
49835;BME280;35729;52.090;13.162;2024-01-25T12:44:11;101796.59;;;7.69;72.43
49835;BME280;35729;52.090;13.162;2024-01-25T12:46:40;101801.81;;;7.71;72.92
49835;BME280;35729;52.090;13.162;2024-01-25T12:49:08;101778.34;;;7.74;73.21
49835;BME280;35729;52.090;13.162;2024-01-25T12:51:37;101766.16;;;7.74;73.15
49835;BME280;35729;52.090;13.162;2024-01-25T12:54:05;101761.81;;;7.78;73.14
49835;BME280;35729;52.090;13.162;2024-01-25T12:56:34;101758.34;;;7.80;73.75
49835;BME280;35729;52.090;13.162;2024-01-25T12:59:03;101790.59;;;7.82;73.09
49835;BME280;35729;52.090;13.162;2024-01-25T13:01:34;101781.00;;;7.80;73.05